sensor_id;sensor_type;location;lat;lon;timestamp;pressure;altitude;pressure_sealevel;temperature;humidity
39363;BME280;25088;43.238;23.110;2024-03-22T00:00:42;96695.75;;;6.21;52.70
39363;BME280;25088;43.238;23.110;2024-03-22T00:03:08;96718.84;;;6.48;52.73
39363;BME280;25088;43.238;23.110;2024-03-22T00:05:33;96670.28;;;6.04;52.27
39363;BME280;25088;43.238;23.110;2024-03-22T00:07:59;96715.03;;;6.31;53.02
39363;BME280;25088;43.238;23.110;2024-03-22T00:10:24;96685.00;;;6.33;52.71
39363;BME280;25088;43.238;23.110;2024-03-22T00:12:50;96701.03;;;6.34;52.80
39363;BME280;25088;43.238;23.110;2024-03-22T00:15:15;96638.75;;;5.84;53.34
39363;BME280;25088;43.238;23.110;2024-03-22T00:17:43;96663.53;;;6.13;53.29
39363;BME280;25088;43.238;23.110;2024-03-22T00:20:09;96702.25;;;6.38;52.88
39363;BME280;25088;43.238;23.110;2024-03-22T00:22:34;96702.19;;;6.45;52.09
39363;BME280;25088;43.238;23.110;2024-03-22T00:25:00;96708.56;;;6.51;51.97
39363;BME280;25088;43.238;23.110;2024-03-22T00:27:25;96694.81;;;6.52;51.80
39363;BME280;25088;43.238;23.110;2024-03-22T00:29:50;96689.16;;;6.54;51.70
39363;BME280;25088;43.238;23.110;2024-03-22T00:32:16;96658.63;;;6.40;51.45
39363;BME280;25088;43.238;23.110;2024-03-22T00:34:41;96671.94;;;6.05;52.19
39363;BME280;25088;43.238;23.110;2024-03-22T00:37:07;96706.69;;;6.33;52.17
39363;BME280;25088;43.238;23.110;2024-03-22T00:39:32;96674.97;;;6.15;51.78
39363;BME280;25088;43.238;23.110;2024-03-22T00:41:58;96676.63;;;6.16;51.96
39363;BME280;25088;43.238;23.110;2024-03-22T00:44:23;96686.13;;;6.25;52.17
39363;BME280;25088;43.238;23.110;2024-03-22T00:46:49;96623.94;;;5.87;52.08
39363;BME280;25088;43.238;23.110;2024-03-22T00:49:14;96696.22;;;6.36;52.21
39363;BME280;25088;43.238;23.110;2024-03-22T00:51:40;96658.78;;;6.08;52.60
39363;BME280;25088;43.238;23.110;2024-03-22T00:54:08;96683.56;;;6.12;53.29
39363;BME280;25088;43.238;23.110;2024-03-22T00:56:33;96686.00;;;5.95;53.60
39363;BME280;25088;43.238;23.110;2024-03-22T00:58:59;96701.59;;;6.00;53.94
39363;BME280;25088;43.238;23.110;2024-03-22T01:01:24;96676.59;;;5.73;54.43
39363;BME280;25088;43.238;23.110;2024-03-22T01:03:50;96677.03;;;5.69;54.30
39363;BME280;25088;43.238;23.110;2024-03-22T01:06:15;96685.25;;;5.81;54.37
39363;BME280;25088;43.238;23.110;2024-03-22T01:08:42;96692.47;;;5.94;54.54
39363;BME280;25088;43.238;23.110;2024-03-22T01:11:07;96705.44;;;6.10;54.19
39363;BME280;25088;43.238;23.110;2024-03-22T01:13:33;96712.69;;;6.16;53.78
39363;BME280;25088;43.238;23.110;2024-03-22T01:15:58;96704.38;;;6.11;54.06
39363;BME280;25088;43.238;23.110;2024-03-22T01:18:24;96684.44;;;6.06;53.64
39363;BME280;25088;43.238;23.110;2024-03-22T01:20:49;96695.19;;;6.37;52.98
39363;BME280;25088;43.238;23.110;2024-03-22T01:23:14;96672.56;;;6.07;53.23
39363;BME280;25088;43.238;23.110;2024-03-22T01:25:40;96708.94;;;6.36;52.97
39363;BME280;25088;43.238;23.110;2024-03-22T01:28:05;96697.50;;;6.34;52.30
39363;BME280;25088;43.238;23.110;2024-03-22T01:30:31;96704.31;;;6.43;52.32
39363;BME280;25088;43.238;23.110;2024-03-22T01:32:58;96707.75;;;6.50;52.07
39363;BME280;25088;43.238;23.110;2024-03-22T01:35:24;96711.44;;;6.56;54.02
39363;BME280;25088;43.238;23.110;2024-03-22T01:37:49;96682.81;;;6.41;52.90
39363;BME280;25088;43.238;23.110;2024-03-22T01:40:14;96678.09;;;6.37;53.40
39363;BME280;25088;43.238;23.110;2024-03-22T01:42:40;96683.56;;;6.30;53.66
39363;BME280;25088;43.238;23.110;2024-03-22T01:45:06;96709.34;;;6.39;52.73
39363;BME280;25088;43.238;23.110;2024-03-22T01:47:31;96675.50;;;6.24;52.12
39363;BME280;25088;43.238;23.110;2024-03-22T01:49:57;96719.06;;;6.47;53.00
39363;BME280;25088;43.238;23.110;2024-03-22T01:52:23;96711.53;;;6.49;53.27
39363;BME280;25088;43.238;23.110;2024-03-22T01:54:49;96717.06;;;6.36;54.61
39363;BME280;25088;43.238;23.110;2024-03-22T01:57:15;96717.50;;;6.14;53.94
39363;BME280;25088;43.238;23.110;2024-03-22T01:59:41;96704.84;;;5.83;54.04
39363;BME280;25088;43.238;23.110;2024-03-22T02:02:07;96681.72;;;5.56;54.07
39363;BME280;25088;43.238;23.110;2024-03-22T02:04:32;96695.66;;;5.59;55.42
39363;BME280;25088;43.238;23.110;2024-03-22T02:06:58;96724.38;;;5.60;56.51
39363;BME280;25088;43.238;23.110;2024-03-22T02:09:24;96725.28;;;5.54;56.66
39363;BME280;25088;43.238;23.110;2024-03-22T02:11:50;96724.66;;;5.52;56.76
39363;BME280;25088;43.238;23.110;2024-03-22T02:14:15;96728.03;;;5.48;57.38
39363;BME280;25088;43.238;23.110;2024-03-22T02:16:41;96676.56;;;5.16;57.20
39363;BME280;25088;43.238;23.110;2024-03-22T02:19:07;96707.53;;;5.27;57.83
39363;BME280;25088;43.238;23.110;2024-03-22T02:21:34;96735.91;;;5.17;59.05
39363;BME280;25088;43.238;23.110;2024-03-22T02:24:00;96737.78;;;5.17;58.96
39363;BME280;25088;43.238;23.110;2024-03-22T02:26:25;96743.00;;;5.18;59.09
39363;BME280;25088;43.238;23.110;2024-03-22T02:28:51;96738.22;;;5.14;58.09
39363;BME280;25088;43.238;23.110;2024-03-22T02:31:16;96727.44;;;5.07;58.63
39363;BME280;25088;43.238;23.110;2024-03-22T02:33:42;96752.56;;;5.14;58.77
39363;BME280;25088;43.238;23.110;2024-03-22T02:36:07;96741.28;;;4.79;60.02
39363;BME280;25088;43.238;23.110;2024-03-22T02:38:33;96751.84;;;4.94;59.87
39363;BME280;25088;43.238;23.110;2024-03-22T02:40:58;96747.50;;;4.86;60.78
39363;BME280;25088;43.238;23.110;2024-03-22T02:43:24;96750.00;;;4.81;61.21
39363;BME280;25088;43.238;23.110;2024-03-22T02:45:49;96751.50;;;4.71;62.29
39363;BME280;25088;43.238;23.110;2024-03-22T02:48:15;96728.50;;;4.41;63.23
39363;BME280;25088;43.238;23.110;2024-03-22T02:50:41;96756.56;;;4.47;63.73
39363;BME280;25088;43.238;23.110;2024-03-22T02:53:07;96760.97;;;4.35;64.26
39363;BME280;25088;43.238;23.110;2024-03-22T02:55:39;96718.16;;;4.12;64.07
39363;BME280;25088;43.238;23.110;2024-03-22T02:58:06;96757.00;;;4.31;64.04
39363;BME280;25088;43.238;23.110;2024-03-22T03:00:35;96741.84;;;4.17;64.43
39363;BME280;25088;43.238;23.110;2024-03-22T03:03:00;96755.41;;;4.03;66.59
39363;BME280;25088;43.238;23.110;2024-03-22T03:05:26;96759.13;;;4.02;66.81
39363;BME280;25088;43.238;23.110;2024-03-22T03:07:51;96729.22;;;3.84;66.75
39363;BME280;25088;43.238;23.110;2024-03-22T03:10:17;96731.91;;;3.77;66.62
39363;BME280;25088;43.238;23.110;2024-03-22T03:12:42;96716.16;;;3.54;67.25
39363;BME280;25088;43.238;23.110;2024-03-22T03:15:08;96727.78;;;3.68;67.12
39363;BME280;25088;43.238;23.110;2024-03-22T03:17:33;96747.06;;;3.72;66.84
39363;BME280;25088;43.238;23.110;2024-03-22T03:19:59;96723.41;;;3.60;67.30
39363;BME280;25088;43.238;23.110;2024-03-22T03:22:24;96757.88;;;3.85;66.87
39363;BME280;25088;43.238;23.110;2024-03-22T03:24:50;96730.88;;;3.72;66.80
39363;BME280;25088;43.238;23.110;2024-03-22T03:27:15;96713.22;;;3.62;66.39
39363;BME280;25088;43.238;23.110;2024-03-22T03:29:40;96718.03;;;3.74;66.01
39363;BME280;25088;43.238;23.110;2024-03-22T03:32:06;96730.91;;;3.78;65.96
39363;BME280;25088;43.238;23.110;2024-03-22T03:34:31;96735.44;;;3.91;65.13
39363;BME280;25088;43.238;23.110;2024-03-22T03:36:57;96761.81;;;4.02;65.08
39363;BME280;25088;43.238;23.110;2024-03-22T03:39:26;96744.41;;;3.98;64.88
39363;BME280;25088;43.238;23.110;2024-03-22T03:41:51;96760.53;;;4.45;63.43
39363;BME280;25088;43.238;23.110;2024-03-22T03:44:16;96730.66;;;4.00;63.82
39363;BME280;25088;43.238;23.110;2024-03-22T03:46:42;96751.41;;;4.12;63.82
39363;BME280;25088;43.238;23.110;2024-03-22T03:49:07;96749.34;;;4.21;63.62
39363;BME280;25088;43.238;23.110;2024-03-22T03:51:33;96760.53;;;4.31;64.02
39363;BME280;25088;43.238;23.110;2024-03-22T03:53:58;96755.13;;;4.31;63.34
39363;BME280;25088;43.238;23.110;2024-03-22T03:56:24;96768.00;;;4.49;62.89
39363;BME280;25088;43.238;23.110;2024-03-22T03:58:49;96757.81;;;4.51;62.61
39363;BME280;25088;43.238;23.110;2024-03-22T04:01:15;96750.97;;;4.49;61.97
39363;BME280;25088;43.238;23.110;2024-03-22T04:03:40;96738.31;;;4.43;61.64
39363;BME280;25088;43.238;23.110;2024-03-22T04:06:06;96778.78;;;4.69;61.66
39363;BME280;25088;43.238;23.110;2024-03-22T04:08:31;96763.59;;;4.61;61.09
39363;BME280;25088;43.238;23.110;2024-03-22T04:10:57;96781.25;;;4.71;62.00
39363;BME280;25088;43.238;23.110;2024-03-22T04:13:26;96784.75;;;4.84;61.69
39363;BME280;25088;43.238;23.110;2024-03-22T04:15:53;96759.19;;;4.80;61.07
39363;BME280;25088;43.238;23.110;2024-03-22T04:18:18;96783.34;;;4.69;62.06
39363;BME280;25088;43.238;23.110;2024-03-22T04:20:54;96786.25;;;4.67;62.53
39363;BME280;25088;43.238;23.110;2024-03-22T04:23:19;96749.09;;;4.49;62.40
39363;BME280;25088;43.238;23.110;2024-03-22T04:28:17;96779.00;;;4.68;62.84
39363;BME280;25088;43.238;23.110;2024-03-22T04:30:43;96784.78;;;4.78;62.33
39363;BME280;25088;43.238;23.110;2024-03-22T04:33:08;96767.31;;;4.74;62.40
39363;BME280;25088;43.238;23.110;2024-03-22T04:35:34;96785.78;;;4.90;62.52
39363;BME280;25088;43.238;23.110;2024-03-22T04:37:59;96803.25;;;4.94;62.95
39363;BME280;25088;43.238;23.110;2024-03-22T04:40:25;96799.13;;;4.85;63.18
39363;BME280;25088;43.238;23.110;2024-03-22T04:42:51;96788.13;;;4.73;63.24
39363;BME280;25088;43.238;23.110;2024-03-22T04:45:17;96795.81;;;4.70;63.15
39363;BME280;25088;43.238;23.110;2024-03-22T04:47:42;96808.75;;;4.68;64.10
39363;BME280;25088;43.238;23.110;2024-03-22T04:50:08;96791.91;;;4.59;63.94
39363;BME280;25088;43.238;23.110;2024-03-22T04:52:34;96805.59;;;4.71;63.53
39363;BME280;25088;43.238;23.110;2024-03-22T04:54:59;96804.78;;;4.70;63.50
39363;BME280;25088;43.238;23.110;2024-03-22T04:57:27;96777.56;;;4.52;63.20
39363;BME280;25088;43.238;23.110;2024-03-22T04:59:52;96796.50;;;4.58;63.17
39363;BME280;25088;43.238;23.110;2024-03-22T05:02:18;96793.97;;;4.57;63.99
39363;BME280;25088;43.238;23.110;2024-03-22T05:04:43;96788.75;;;4.62;65.10
39363;BME280;25088;43.238;23.110;2024-03-22T05:07:09;96819.50;;;4.87;64.23
39363;BME280;25088;43.238;23.110;2024-03-22T05:09:34;96822.59;;;4.98;62.94
39363;BME280;25088;43.238;23.110;2024-03-22T05:12:00;96823.13;;;5.19;62.73
39363;BME280;25088;43.238;23.110;2024-03-22T05:14:25;96809.78;;;5.25;63.17
39363;BME280;25088;43.238;23.110;2024-03-22T05:16:51;96832.81;;;5.47;61.96
39363;BME280;25088;43.238;23.110;2024-03-22T05:19:17;96794.91;;;5.40;61.23
39363;BME280;25088;43.238;23.110;2024-03-22T05:21:43;96818.56;;;5.58;62.00
39363;BME280;25088;43.238;23.110;2024-03-22T05:24:08;96773.03;;;5.42;62.26
39363;BME280;25088;43.238;23.110;2024-03-22T05:26:33;96814.03;;;5.84;62.43
39363;BME280;25088;43.238;23.110;2024-03-22T05:29:01;96797.78;;;5.84;60.70
39363;BME280;25088;43.238;23.110;2024-03-22T05:31:28;96825.34;;;6.12;60.38
39363;BME280;25088;43.238;23.110;2024-03-22T05:33:53;96827.25;;;6.30;59.76
39363;BME280;25088;43.238;23.110;2024-03-22T05:36:19;96825.38;;;6.56;59.00
39363;BME280;25088;43.238;23.110;2024-03-22T05:38:44;96831.22;;;6.78;58.25
39363;BME280;25088;43.238;23.110;2024-03-22T05:41:10;96815.84;;;6.90;57.08
39363;BME280;25088;43.238;23.110;2024-03-22T05:43:36;96810.88;;;7.23;56.38
39363;BME280;25088;43.238;23.110;2024-03-22T05:46:02;96833.59;;;7.59;54.19
39363;BME280;25088;43.238;23.110;2024-03-22T05:48:27;96830.22;;;7.75;53.43
39363;BME280;25088;43.238;23.110;2024-03-22T05:50:53;96815.63;;;7.76;52.79
39363;BME280;25088;43.238;23.110;2024-03-22T05:53:19;96805.03;;;7.98;52.07
39363;BME280;25088;43.238;23.110;2024-03-22T05:55:44;96837.66;;;8.40;52.10
39363;BME280;25088;43.238;23.110;2024-03-22T05:58:09;96811.56;;;8.51;50.25
39363;BME280;25088;43.238;23.110;2024-03-22T06:00:35;96820.91;;;8.90;49.33
39363;BME280;25088;43.238;23.110;2024-03-22T06:03:00;96828.31;;;9.18;48.94
39363;BME280;25088;43.238;23.110;2024-03-22T06:05:26;96816.75;;;9.51;47.37
39363;BME280;25088;43.238;23.110;2024-03-22T06:07:51;96823.53;;;9.77;47.29
39363;BME280;25088;43.238;23.110;2024-03-22T06:10:17;96821.88;;;10.05;46.47
39363;BME280;25088;43.238;23.110;2024-03-22T06:12:42;96822.47;;;10.24;46.43
39363;BME280;25088;43.238;23.110;2024-03-22T06:15:09;96829.53;;;10.53;47.07
39363;BME280;25088;43.238;23.110;2024-03-22T06:17:35;96811.00;;;10.72;45.84
39363;BME280;25088;43.238;23.110;2024-03-22T06:20:00;96827.53;;;10.99;44.84
39363;BME280;25088;43.238;23.110;2024-03-22T06:22:26;96816.09;;;11.02;44.06
39363;BME280;25088;43.238;23.110;2024-03-22T06:24:52;96818.59;;;11.26;43.85
39363;BME280;25088;43.238;23.110;2024-03-22T06:27:21;96846.66;;;11.60;43.22
39363;BME280;25088;43.238;23.110;2024-03-22T06:29:46;96832.34;;;11.75;42.94
39363;BME280;25088;43.238;23.110;2024-03-22T06:32:12;96822.28;;;11.80;42.06
39363;BME280;25088;43.238;23.110;2024-03-22T06:34:37;96837.25;;;11.95;41.76
39363;BME280;25088;43.238;23.110;2024-03-22T06:37:03;96820.94;;;12.05;42.38
39363;BME280;25088;43.238;23.110;2024-03-22T06:39:29;96820.72;;;12.11;41.47
39363;BME280;25088;43.238;23.110;2024-03-22T06:41:55;96815.16;;;12.28;41.96
39363;BME280;25088;43.238;23.110;2024-03-22T06:44:20;96849.22;;;12.70;41.71
39363;BME280;25088;43.238;23.110;2024-03-22T06:46:46;96834.16;;;12.72;41.85
39363;BME280;25088;43.238;23.110;2024-03-22T06:49:11;96856.72;;;12.84;41.88
39363;BME280;25088;43.238;23.110;2024-03-22T06:51:37;96831.13;;;12.68;42.41
39363;BME280;25088;43.238;23.110;2024-03-22T06:54:02;96839.50;;;12.89;42.41
39363;BME280;25088;43.238;23.110;2024-03-22T06:56:28;96853.31;;;13.04;42.84
39363;BME280;25088;43.238;23.110;2024-03-22T06:58:53;96859.72;;;13.20;41.79
39363;BME280;25088;43.238;23.110;2024-03-22T07:01:19;96844.81;;;13.06;42.07
39363;BME280;25088;43.238;23.110;2024-03-22T07:03:46;96853.34;;;13.09;43.56
39363;BME280;25088;43.238;23.110;2024-03-22T07:06:11;96860.28;;;13.22;43.00
39363;BME280;25088;43.238;23.110;2024-03-22T07:08:37;96855.41;;;13.29;42.92
39363;BME280;25088;43.238;23.110;2024-03-22T07:11:06;96866.47;;;13.44;42.86
39363;BME280;25088;43.238;23.110;2024-03-22T07:13:32;96841.78;;;13.39;42.50
39363;BME280;25088;43.238;23.110;2024-03-22T07:15:57;96860.78;;;13.61;42.39
39363;BME280;25088;43.238;23.110;2024-03-22T07:18:22;96862.22;;;13.69;42.37
39363;BME280;25088;43.238;23.110;2024-03-22T07:20:48;96871.03;;;13.81;41.99
39363;BME280;25088;43.238;23.110;2024-03-22T07:23:14;96845.28;;;13.87;41.62
39363;BME280;25088;43.238;23.110;2024-03-22T07:25:39;96870.25;;;13.91;42.67
39363;BME280;25088;43.238;23.110;2024-03-22T07:28:08;96854.47;;;13.61;41.45
39363;BME280;25088;43.238;23.110;2024-03-22T07:30:33;96871.31;;;13.80;41.80
39363;BME280;25088;43.238;23.110;2024-03-22T07:32:58;96853.25;;;13.94;41.58
39363;BME280;25088;43.238;23.110;2024-03-22T07:35:24;96847.56;;;14.21;41.47
39363;BME280;25088;43.238;23.110;2024-03-22T07:37:50;96865.53;;;14.59;40.77
39363;BME280;25088;43.238;23.110;2024-03-22T07:40:15;96854.81;;;14.73;41.20
39363;BME280;25088;43.238;23.110;2024-03-22T07:42:41;96855.34;;;14.90;39.89
39363;BME280;25088;43.238;23.110;2024-03-22T07:45:07;96849.63;;;14.92;40.55
39363;BME280;25088;43.238;23.110;2024-03-22T07:47:34;96844.38;;;14.95;40.76
39363;BME280;25088;43.238;23.110;2024-03-22T07:49:59;96829.25;;;15.08;39.62
39363;BME280;25088;43.238;23.110;2024-03-22T07:52:24;96845.66;;;15.44;40.23
39363;BME280;25088;43.238;23.110;2024-03-22T07:54:50;96853.38;;;15.52;39.08
39363;BME280;25088;43.238;23.110;2024-03-22T07:57:16;96848.66;;;15.63;38.56
39363;BME280;25088;43.238;23.110;2024-03-22T07:59:41;96856.91;;;15.63;39.08
39363;BME280;25088;43.238;23.110;2024-03-22T08:02:09;96847.81;;;15.72;39.14
39363;BME280;25088;43.238;23.110;2024-03-22T08:04:34;96848.56;;;15.93;38.73
39363;BME280;25088;43.238;23.110;2024-03-22T08:07:00;96833.69;;;15.89;38.34
39363;BME280;25088;43.238;23.110;2024-03-22T08:09:25;96844.72;;;15.89;38.23
39363;BME280;25088;43.238;23.110;2024-03-22T08:11:51;96853.19;;;16.08;38.57
39363;BME280;25088;43.238;23.110;2024-03-22T08:14:16;96842.63;;;16.20;37.80
39363;BME280;25088;43.238;23.110;2024-03-22T08:16:42;96842.25;;;16.42;37.95
39363;BME280;25088;43.238;23.110;2024-03-22T08:19:07;96849.53;;;16.62;37.66
39363;BME280;25088;43.238;23.110;2024-03-22T08:21:34;96845.94;;;16.72;37.86
39363;BME280;25088;43.238;23.110;2024-03-22T08:24:01;96851.59;;;16.86;37.29
39363;BME280;25088;43.238;23.110;2024-03-22T08:26:26;96851.84;;;16.89;37.47
39363;BME280;25088;43.238;23.110;2024-03-22T08:28:52;96825.38;;;16.88;37.05
39363;BME280;25088;43.238;23.110;2024-03-22T08:31:17;96834.78;;;16.87;36.88
39363;BME280;25088;43.238;23.110;2024-03-22T08:33:44;96844.88;;;17.31;36.96
39363;BME280;25088;43.238;23.110;2024-03-22T08:36:10;96849.00;;;17.28;37.54
39363;BME280;25088;43.238;23.110;2024-03-22T08:38:35;96819.91;;;17.41;36.48
39363;BME280;25088;43.238;23.110;2024-03-22T08:41:01;96818.81;;;17.66;36.48
39363;BME280;25088;43.238;23.110;2024-03-22T08:43:26;96834.28;;;17.91;36.10
39363;BME280;25088;43.238;23.110;2024-03-22T08:45:54;96840.59;;;18.16;35.89
39363;BME280;25088;43.238;23.110;2024-03-22T08:48:20;96802.63;;;18.02;35.76
39363;BME280;25088;43.238;23.110;2024-03-22T08:50:47;96834.25;;;18.34;35.19
39363;BME280;25088;43.238;23.110;2024-03-22T08:53:14;96829.53;;;18.53;34.99
39363;BME280;25088;43.238;23.110;2024-03-22T08:55:45;96830.44;;;18.68;34.62
39363;BME280;25088;43.238;23.110;2024-03-22T08:58:11;96825.50;;;18.83;34.31
39363;BME280;25088;43.238;23.110;2024-03-22T09:00:36;96792.28;;;18.51;33.96
39363;BME280;25088;43.238;23.110;2024-03-22T09:03:03;96814.25;;;18.80;34.11
39363;BME280;25088;43.238;23.110;2024-03-22T09:05:28;96815.75;;;19.05;33.99
39363;BME280;25088;43.238;23.110;2024-03-22T09:07:54;96788.81;;;19.10;32.72
39363;BME280;25088;43.238;23.110;2024-03-22T09:10:21;96810.28;;;19.32;32.96
39363;BME280;25088;43.238;23.110;2024-03-22T09:12:46;96818.34;;;19.29;32.24
39363;BME280;25088;43.238;23.110;2024-03-22T09:15:11;96802.91;;;19.42;32.30
39363;BME280;25088;43.238;23.110;2024-03-22T09:17:37;96775.94;;;19.47;31.64
39363;BME280;25088;43.238;23.110;2024-03-22T09:20:04;96785.50;;;19.69;31.24
39363;BME280;25088;43.238;23.110;2024-03-22T09:22:30;96775.56;;;19.68;31.89
39363;BME280;25088;43.238;23.110;2024-03-22T09:24:57;96779.63;;;19.98;31.28
39363;BME280;25088;43.238;23.110;2024-03-22T09:27:23;96713.28;;;19.37;30.63
39363;BME280;25088;43.238;23.110;2024-03-22T09:29:48;96796.75;;;20.13;30.37
39363;BME280;25088;43.238;23.110;2024-03-22T09:32:14;96782.66;;;20.24;30.53
39363;BME280;25088;43.238;23.110;2024-03-22T09:34:40;96786.91;;;20.07;30.62
39363;BME280;25088;43.238;23.110;2024-03-22T09:37:05;96770.16;;;20.12;30.74
39363;BME280;25088;43.238;23.110;2024-03-22T09:39:31;96789.44;;;20.31;30.74
39363;BME280;25088;43.238;23.110;2024-03-22T09:41:58;96784.72;;;20.18;30.90
39363;BME280;25088;43.238;23.110;2024-03-22T09:44:27;96776.34;;;20.46;30.34
39363;BME280;25088;43.238;23.110;2024-03-22T09:46:53;96745.03;;;20.45;30.60
39363;BME280;25088;43.238;23.110;2024-03-22T09:49:19;96780.19;;;20.95;29.82
39363;BME280;25088;43.238;23.110;2024-03-22T09:51:45;96732.13;;;20.85;29.17
39363;BME280;25088;43.238;23.110;2024-03-22T09:54:12;96771.75;;;21.08;29.81
39363;BME280;25088;43.238;23.110;2024-03-22T09:56:40;96777.78;;;20.79;30.29
39363;BME280;25088;43.238;23.110;2024-03-22T09:59:07;96769.28;;;20.76;29.96
39363;BME280;25088;43.238;23.110;2024-03-22T10:01:34;96772.53;;;20.78;29.33
39363;BME280;25088;43.238;23.110;2024-03-22T10:04:00;96769.50;;;20.88;30.15
39363;BME280;25088;43.238;23.110;2024-03-22T10:06:25;96726.31;;;20.73;29.52
39363;BME280;25088;43.238;23.110;2024-03-22T10:08:51;96728.13;;;21.00;29.45
39363;BME280;25088;43.238;23.110;2024-03-22T10:11:16;96738.41;;;21.00;28.59
39363;BME280;25088;43.238;23.110;2024-03-22T10:13:43;96767.56;;;21.42;27.96
39363;BME280;25088;43.238;23.110;2024-03-22T10:16:09;96762.25;;;21.54;28.27
39363;BME280;25088;43.238;23.110;2024-03-22T10:18:34;96761.47;;;21.71;28.13
39363;BME280;25088;43.238;23.110;2024-03-22T10:21:02;96759.09;;;21.96;28.30
39363;BME280;25088;43.238;23.110;2024-03-22T10:23:28;96759.41;;;22.03;27.84
39363;BME280;25088;43.238;23.110;2024-03-22T10:25:56;96754.75;;;22.21;26.60
39363;BME280;25088;43.238;23.110;2024-03-22T10:28:23;96743.97;;;22.19;26.63
39363;BME280;25088;43.238;23.110;2024-03-22T10:30:52;96754.28;;;22.44;25.81
39363;BME280;25088;43.238;23.110;2024-03-22T10:33:21;96723.34;;;22.46;25.81
39363;BME280;25088;43.238;23.110;2024-03-22T10:35:54;96746.38;;;22.12;26.75
39363;BME280;25088;43.238;23.110;2024-03-22T10:38:20;96725.88;;;21.82;26.75
39363;BME280;25088;43.238;23.110;2024-03-22T10:40:47;96739.72;;;22.13;27.50
39363;BME280;25088;43.238;23.110;2024-03-22T10:43:16;96747.56;;;22.54;25.50
39363;BME280;25088;43.238;23.110;2024-03-22T10:45:42;96739.03;;;22.77;25.38
39363;BME280;25088;43.238;23.110;2024-03-22T10:48:11;96735.13;;;22.78;25.80
39363;BME280;25088;43.238;23.110;2024-03-22T10:50:41;96731.19;;;22.70;26.53
39363;BME280;25088;43.238;23.110;2024-03-22T10:53:11;96715.81;;;22.73;26.27
39363;BME280;25088;43.238;23.110;2024-03-22T10:55:42;96707.13;;;22.83;25.48
39363;BME280;25088;43.238;23.110;2024-03-22T10:58:17;96725.03;;;23.29;24.69
39363;BME280;25088;43.238;23.110;2024-03-22T11:00:43;96707.44;;;23.37;25.55
39363;BME280;25088;43.238;23.110;2024-03-22T11:03:10;96711.19;;;23.50;25.50
39363;BME280;25088;43.238;23.110;2024-03-22T11:05:48;96702.22;;;23.35;25.35
39363;BME280;25088;43.238;23.110;2024-03-22T11:11:35;96691.28;;;23.68;25.38
39363;BME280;25088;43.238;23.110;2024-03-22T11:14:04;96691.72;;;23.41;24.75
39363;BME280;25088;43.238;23.110;2024-03-22T11:16:29;96702.47;;;23.51;24.75
39363;BME280;25088;43.238;23.110;2024-03-22T11:18:55;96695.22;;;23.67;25.37
39363;BME280;25088;43.238;23.110;2024-03-22T11:21:21;96704.84;;;23.32;25.64
39363;BME280;25088;43.238;23.110;2024-03-22T11:23:46;96699.88;;;23.08;26.29
39363;BME280;25088;43.238;23.110;2024-03-22T11:26:12;96691.78;;;23.32;25.99
39363;BME280;25088;43.238;23.110;2024-03-22T11:28:39;96693.16;;;23.09;25.87
39363;BME280;25088;43.238;23.110;2024-03-22T11:31:04;96685.81;;;22.95;25.24
39363;BME280;25088;43.238;23.110;2024-03-22T11:33:33;96682.00;;;23.09;26.18
39363;BME280;25088;43.238;23.110;2024-03-22T11:35:59;96686.66;;;22.79;26.36
39363;BME280;25088;43.238;23.110;2024-03-22T11:38:29;96673.97;;;23.07;26.44
39363;BME280;25088;43.238;23.110;2024-03-22T11:40:57;96659.47;;;22.93;26.01
39363;BME280;25088;43.238;23.110;2024-03-22T11:43:23;96659.19;;;23.24;24.80
39363;BME280;25088;43.238;23.110;2024-03-22T11:45:49;96674.72;;;22.52;25.66
39363;BME280;25088;43.238;23.110;2024-03-22T11:48:15;96644.81;;;22.49;26.15
39363;BME280;25088;43.238;23.110;2024-03-22T11:50:41;96655.53;;;22.77;26.01
39363;BME280;25088;43.238;23.110;2024-03-22T11:53:07;96641.50;;;22.47;26.47
39363;BME280;25088;43.238;23.110;2024-03-22T11:55:32;96645.09;;;22.74;26.47
39363;BME280;25088;43.238;23.110;2024-03-22T11:58:00;96608.19;;;22.94;25.13
39363;BME280;25088;43.238;23.110;2024-03-22T12:00:27;96663.69;;;22.82;25.86
39363;BME280;25088;43.238;23.110;2024-03-22T12:02:53;96640.34;;;21.70;26.66
39363;BME280;25088;43.238;23.110;2024-03-22T12:05:19;96661.13;;;21.64;26.52
39363;BME280;25088;43.238;23.110;2024-03-22T12:07:45;96654.22;;;21.13;27.12
39363;BME280;25088;43.238;23.110;2024-03-22T12:10:11;96629.19;;;21.53;26.89
39363;BME280;25088;43.238;23.110;2024-03-22T12:12:36;96642.19;;;22.44;26.48
39363;BME280;25088;43.238;23.110;2024-03-22T12:15:03;96624.63;;;23.16;25.88
39363;BME280;25088;43.238;23.110;2024-03-22T12:17:28;96630.91;;;23.72;26.67
39363;BME280;25088;43.238;23.110;2024-03-22T12:19:55;96626.91;;;24.24;25.32
39363;BME280;25088;43.238;23.110;2024-03-22T12:22:22;96624.66;;;24.38;25.07
39363;BME280;25088;43.238;23.110;2024-03-22T12:24:47;96608.59;;;24.68;24.34
39363;BME280;25088;43.238;23.110;2024-03-22T12:27:14;96609.81;;;24.92;24.22
39363;BME280;25088;43.238;23.110;2024-03-22T12:29:40;96604.28;;;24.59;24.52
39363;BME280;25088;43.238;23.110;2024-03-22T12:32:06;96616.69;;;24.94;24.25
39363;BME280;25088;43.238;23.110;2024-03-22T12:34:32;96617.56;;;25.32;23.62
39363;BME280;25088;43.238;23.110;2024-03-22T12:37:01;96609.50;;;25.79;23.34
39363;BME280;25088;43.238;23.110;2024-03-22T12:39:27;96604.16;;;25.13;23.69
39363;BME280;25088;43.238;23.110;2024-03-22T12:41:53;96599.88;;;25.52;22.96
39363;BME280;25088;43.238;23.110;2024-03-22T12:44:19;96615.66;;;24.99;23.79
39363;BME280;25088;43.238;23.110;2024-03-22T12:46:44;96600.56;;;24.34;23.50
39363;BME280;25088;43.238;23.110;2024-03-22T12:49:10;96617.19;;;24.09;24.34
39363;BME280;25088;43.238;23.110;2024-03-22T12:51:36;96617.66;;;23.61;24.82
39363;BME280;25088;43.238;23.110;2024-03-22T12:54:02;96605.66;;;23.10;25.19